Time;durP1;ratioP1;P1;durP2;ratioP2;P2;SDS_P1;SDS_P2;PMS_P1;PMS_P2;Temp;Humidity;BMP_temperature;BMP_pressure;BME280_temperature;BME280_humidity;BME280_pressure;Samples;Min_cycle;Max_cycle;Signal;HPM_P1;HPM_P2
2023/09/07 00:01:52;;;;;;;62.50;30.95;;;18.00;99.90;;;17.09;100.00;102191.47;4952635;29;20067;-68
2023/09/07 00:04:19;;;;;;;51.55;28.23;;;18.00;99.90;;;17.02;100.00;102189.13;4949515;29;20061;-69
2023/09/07 00:06:45;;;;;;;58.08;29.67;;;18.00;99.90;;;17.00;100.00;102193.66;4951328;29;20043;-69
2023/09/07 00:09:11;;;;;;;52.83;29.67;;;18.00;99.90;;;17.10;100.00;102190.50;4952244;29;20027;-69
2023/09/07 00:11:38;;;;;;;61.22;31.30;;;18.00;99.90;;;17.08;100.00;102184.41;4952474;28;21304;-69
2023/09/07 00:14:03;;;;;;;56.85;31.38;;;18.00;99.90;;;17.12;100.00;102185.97;4951385;28;20027;-69
2023/09/07 00:16:35;;;;;;;69.32;34.03;;;18.10;99.90;;;17.12;100.00;102193.97;4967555;28;20698;-69
2023/09/07 00:19:03;;;;;;;58.22;32.33;;;18.00;99.90;;;17.08;100.00;102187.94;4950767;29;20019;-68
2023/09/07 00:21:28;;;;;;;61.35;33.13;;;18.00;99.90;;;17.08;100.00;102181.75;4950268;28;20030;-68
2023/09/07 00:23:55;;;;;;;63.33;33.90;;;18.00;99.90;;;17.07;100.00;102182.69;4952248;28;20043;-69
2023/09/07 00:26:20;;;;;;;62.60;33.40;;;18.00;99.90;;;17.06;100.00;102189.81;4951094;29;20085;-69
2023/09/07 00:28:47;;;;;;;61.88;31.98;;;18.00;99.90;;;16.98;100.00;102179.56;4951987;29;20027;-68
2023/09/07 00:31:16;;;;;;;60.25;33.28;;;18.00;99.90;;;16.97;100.00;102191.13;4935639;29;20039;-69
2023/09/07 00:33:41;;;;;;;53.13;31.85;;;18.00;99.90;;;17.07;100.00;102185.38;4949919;29;20086;-69
2023/09/07 00:36:07;;;;;;;54.75;32.63;;;18.00;99.90;;;17.00;100.00;102190.13;4951508;28;21211;-69
2023/09/07 00:38:33;;;;;;;59.92;33.40;;;18.00;99.90;;;17.09;100.00;102186.16;4951605;28;20032;-69
2023/09/07 00:40:59;;;;;;;54.25;32.45;;;18.00;99.90;;;17.06;100.00;102187.13;4953070;28;20043;-69
2023/09/07 00:43:24;;;;;;;58.72;33.88;;;18.00;99.90;;;17.04;100.00;102182.84;4948728;28;20039;-69
2023/09/07 00:45:50;;;;;;;57.35;33.50;;;18.00;99.90;;;17.04;100.00;102197.03;4952701;28;20027;-68
2023/09/07 00:48:16;;;;;;;55.65;30.98;;;18.00;99.90;;;17.00;100.00;102184.81;4951291;28;20027;-69
2023/09/07 00:50:43;;;;;;;49.15;31.48;;;18.00;99.90;;;17.06;100.00;102195.13;4932522;29;20115;-69
2023/09/07 00:53:10;;;;;;;49.20;29.38;;;18.00;99.90;;;17.05;100.00;102192.56;4950255;29;20058;-69
2023/09/07 00:55:37;;;;;;;50.30;30.50;;;18.00;99.90;;;17.11;100.00;102195.78;4949439;29;20114;-69
2023/09/07 00:58:06;;;;;;;48.55;28.70;;;18.00;99.90;;;17.05;100.00;102189.91;4949907;28;20027;-69
2023/09/07 01:00:34;;;;;;;60.92;32.97;;;18.00;99.90;;;17.09;100.00;102189.66;4950844;29;20313;-68
2023/09/07 01:03:01;;;;;;;63.53;33.70;;;18.10;99.90;;;17.15;100.00;102185.84;4935088;29;20397;-69
2023/09/07 01:06:04;;;;;;;55.03;32.22;;;18.10;99.90;;;17.12;100.00;102186.84;4950796;28;20101;-68
2023/09/07 01:08:38;;;;;;;55.00;31.10;;;18.10;99.90;;;17.17;100.00;102187.47;4953001;28;20031;-68
2023/09/07 01:11:22;;;;;;;70.07;34.10;;;18.10;99.90;;;17.19;100.00;102182.06;4951524;28;20031;-69
2023/09/07 01:13:50;;;;;;;60.75;33.15;;;18.10;99.90;;;17.11;100.00;102186.94;4965748;28;20118;-69
2023/09/07 01:16:16;;;;;;;60.15;33.65;;;18.10;99.90;;;17.15;100.00;102188.50;4949220;28;20034;-69
2023/09/07 01:18:42;;;;;;;66.32;33.88;;;18.10;99.90;;;17.13;100.00;102183.25;4951864;28;20036;-69
2023/09/07 01:21:11;;;;;;;57.00;31.35;;;18.00;99.90;;;17.06;100.00;102180.97;4950394;28;20023;-68
2023/09/07 01:23:39;;;;;;;51.47;30.98;;;18.10;99.90;;;17.09;100.00;102181.69;4964113;28;20031;-68
2023/09/07 01:26:08;;;;;;;58.17;31.63;;;18.10;99.90;;;17.17;100.00;102189.25;4963476;28;20470;-69
2023/09/07 01:28:35;;;;;;;62.05;31.52;;;18.10;99.90;;;17.18;100.00;102188.34;4949053;28;20031;-69
2023/09/07 01:31:03;;;;;;;56.10;30.30;;;18.10;99.90;;;17.10;100.00;102188.72;4950553;29;20067;-69
2023/09/07 01:33:29;;;;;;;62.35;29.60;;;18.10;99.90;;;17.08;100.00;102187.06;4951550;29;20027;-69
2023/09/07 01:35:55;;;;;;;67.22;31.83;;;18.00;99.90;;;17.07;100.00;102177.38;4948546;28;20094;-69
2023/09/07 01:38:21;;;;;;;51.08;30.95;;;18.10;99.90;;;17.15;100.00;102185.84;4951893;28;20032;-69
2023/09/07 01:40:47;;;;;;;55.65;31.20;;;18.00;99.90;;;17.09;100.00;102181.69;4933824;29;20414;-69
2023/09/07 01:43:13;;;;;;;56.55;31.42;;;18.00;99.90;;;17.02;100.00;102175.81;4949432;29;20043;-69
2023/09/07 01:45:39;;;;;;;49.78;31.38;;;18.10;99.90;;;17.13;100.00;102185.91;4951169;28;20114;-69
2023/09/07 01:48:10;;;;;;;57.15;29.58;;;18.10;99.90;;;17.15;100.00;102181.38;4949274;28;20031;-69
2023/09/07 01:50:36;;;;;;;56.15;26.98;;;18.10;99.90;;;17.13;100.00;102179.75;4949014;29;20043;-69
2023/09/07 01:53:04;;;;;;;54.33;31.70;;;18.10;99.90;;;17.22;100.00;102177.44;4950301;29;20130;-69
2023/09/07 01:55:30;;;;;;;62.72;31.45;;;18.10;99.90;;;17.22;100.00;102171.28;4948881;28;20039;-69
2023/09/07 01:57:56;;;;;;;51.10;25.50;;;18.10;99.90;;;17.11;100.00;102185.13;4951593;28;20031;-69
2023/09/07 02:00:22;;;;;;;59.13;30.48;;;18.10;99.90;;;17.21;100.00;102174.84;4964490;28;20678;-69
2023/09/07 02:02:47;;;;;;;51.65;28.88;;;18.10;99.90;;;17.17;100.00;102179.50;4949362;29;20051;-69
2023/09/07 02:05:13;;;;;;;51.05;28.23;;;18.10;99.90;;;17.20;100.00;102178.47;4949395;29;20039;-69
2023/09/07 02:07:39;;;;;;;64.57;31.98;;;18.10;99.90;;;17.25;100.00;102187.06;4951270;28;20090;-69
2023/09/07 02:10:05;;;;;;;57.17;29.80;;;18.20;99.90;;;17.24;100.00;102181.84;4949934;29;20065;-69
2023/09/07 02:12:31;;;;;;;65.43;30.63;;;18.10;99.90;;;17.14;100.00;102184.09;4934163;29;20027;-69
2023/09/07 02:15:00;;;;;;;55.25;30.48;;;18.10;99.90;;;17.20;100.00;102184.66;4948726;29;20063;-69
2023/09/07 02:17:26;;;;;;;75.45;33.33;;;18.10;99.90;;;17.24;100.00;102188.03;4950132;29;20043;-69
2023/09/07 02:19:51;;;;;;;60.38;32.00;;;18.20;99.90;;;17.22;100.00;102179.25;4949682;29;20024;-69
2023/09/07 02:22:17;;;;;;;65.72;32.05;;;18.10;99.90;;;17.20;100.00;102191.78;4949469;28;20050;-69
2023/09/07 02:24:43;;;;;;;57.65;31.50;;;18.20;99.90;;;17.34;100.00;102193.72;4948359;29;20023;-69
2023/09/07 02:27:08;;;;;;;66.65;31.45;;;18.20;99.90;;;17.29;100.00;102193.97;4950041;28;20035;-69
2023/09/07 02:34:45;;;;;;;64.53;31.67;;;18.30;99.90;;;17.34;100.00;102185.72;5184552;23;20434;-74
2023/09/07 02:37:11;;;;;;;50.67;27.85;;;18.20;99.90;;;17.26;100.00;102193.28;4983471;28;20030;-74
2023/09/07 02:39:36;;;;;;;47.05;28.65;;;18.20;99.90;;;17.24;100.00;102184.50;4990192;28;20034;-74
2023/09/07 02:42:02;;;;;;;49.47;28.80;;;18.20;99.90;;;17.25;100.00;102181.75;4989573;28;20063;-74
2023/09/07 02:44:28;;;;;;;55.30;30.30;;;18.20;99.90;;;17.35;100.00;102188.31;4977409;28;20026;-74
2023/09/07 02:46:54;;;;;;;62.72;32.00;;;18.20;99.90;;;17.34;100.00;102194.59;5000765;28;20050;-74
2023/09/07 02:49:20;;;;;;;54.75;30.08;;;18.30;99.90;;;17.28;100.00;102186.94;4998087;28;20042;-74
2023/09/07 02:51:45;;;;;;;58.85;31.40;;;18.20;99.90;;;17.17;100.00;102190.13;4992496;28;20084;-74
2023/09/07 02:54:11;;;;;;;64.78;33.55;;;18.20;99.90;;;17.30;100.00;102187.72;4999555;28;20096;-74
2023/09/07 02:56:37;;;;;;;52.05;29.25;;;18.20;99.90;;;17.33;100.00;102194.66;4997842;28;20423;-74
2023/09/07 02:59:02;;;;;;;54.88;29.13;;;18.20;99.90;;;17.17;100.00;102195.47;4998345;28;20093;-74
2023/09/07 03:01:28;;;;;;;56.88;30.00;;;18.20;99.90;;;17.25;100.00;102194.19;4963730;28;20033;-74
2023/09/07 03:03:54;;;;;;;51.85;29.67;;;18.20;99.90;;;17.20;100.00;102194.44;5004068;28;20030;-74
2023/09/07 03:06:21;;;;;;;64.40;31.25;;;18.20;99.90;;;17.17;100.00;102191.91;4990426;28;20046;-74
2023/09/07 03:08:47;;;;;;;58.08;32.42;;;18.10;99.90;;;17.17;100.00;102187.47;4979452;28;20041;-74
2023/09/07 03:11:13;;;;;;;65.38;33.10;;;18.20;99.90;;;17.27;100.00;102194.97;4996099;28;20141;-74
2023/09/07 03:13:39;;;;;;;54.75;30.15;;;18.20;99.90;;;17.33;100.00;102192.88;5009077;28;20088;-74
2023/09/07 03:16:05;;;;;;;69.15;33.63;;;18.20;99.90;;;17.35;100.00;102195.47;5001506;28;20026;-74
2023/09/07 03:18:31;;;;;;;63.03;32.42;;;18.20;99.90;;;17.33;100.00;102198.19;5006581;28;20498;-74
2023/09/07 03:21:01;;;;;;;59.92;33.40;;;18.20;99.90;;;17.29;100.00;102196.63;4996308;28;20093;-74
2023/09/07 03:23:32;;;;;;;63.78;30.23;;;18.20;99.90;;;17.28;100.00;102202.91;5003888;28;20033;-74
2023/09/07 03:25:58;;;;;;;71.55;34.05;;;18.20;99.90;;;17.14;100.00;102202.72;5003061;28;20045;-74
2023/09/07 03:28:25;;;;;;;67.68;34.08;;;18.20;99.90;;;17.18;100.00;102196.31;5000023;28;20053;-74
2023/09/07 03:30:53;;;;;;;76.18;33.90;;;18.10;99.90;;;17.20;100.00;102200.63;5001088;28;20101;-74
2023/09/07 03:33:19;;;;;;;79.63;36.58;;;18.10;99.90;;;17.21;100.00;102202.34;5004230;28;20313;-74
2023/09/07 03:35:45;;;;;;;72.38;35.00;;;18.20;99.90;;;17.25;100.00;102197.72;4996380;28;20027;-73
2023/09/07 03:38:11;;;;;;;81.25;34.85;;;18.20;99.90;;;17.28;100.00;102207.34;4988526;28;20026;-74
2023/09/07 03:40:36;;;;;;;75.47;35.30;;;18.20;99.90;;;17.28;100.00;102205.56;4987634;28;20476;-74
2023/09/07 03:43:02;;;;;;;74.82;34.70;;;18.20;99.90;;;17.22;100.00;102201.41;4985052;28;20025;-74
2023/09/07 03:45:28;;;;;;;73.40;34.67;;;18.20;99.90;;;17.19;100.00;102209.56;5001518;28;20117;-74
2023/09/07 03:47:54;;;;;;;77.13;36.30;;;18.10;99.90;;;17.19;100.00;102201.56;5002788;28;20038;-75
2023/09/07 03:50:19;;;;;;;78.72;34.80;;;18.20;99.90;;;17.21;100.00;102202.34;5001919;28;20041;-74
2023/09/07 03:52:45;;;;;;;76.25;35.72;;;18.10;99.90;;;17.26;100.00;102207.44;5001747;28;20044;-74
2023/09/07 03:55:11;;;;;;;73.60;35.97;;;18.20;99.90;;;17.25;100.00;102203.03;5019775;28;20036;-74
2023/09/07 03:57:37;;;;;;;88.55;37.63;;;18.20;99.90;;;17.34;100.00;102207.91;5004121;28;20026;-74
2023/09/07 04:00:07;;;;;;;71.93;35.35;;;18.20;99.90;;;17.27;100.00;102205.63;5001850;28;20026;-74
2023/09/07 04:02:34;;;;;;;87.30;37.50;;;18.20;99.90;;;17.27;100.00;102203.81;5005478;28;20057;-74
2023/09/07 04:05:02;;;;;;;68.28;34.13;;;18.20;99.90;;;17.23;100.00;102202.25;5000183;28;20048;-74
2023/09/07 04:07:27;;;;;;;73.45;36.58;;;18.20;99.90;;;17.29;100.00;102211.75;4993299;28;20056;-74
2023/09/07 04:09:53;;;;;;;67.75;34.50;;;18.20;99.90;;;17.33;100.00;102206.19;4994280;28;20030;-74
2023/09/07 04:12:19;;;;;;;80.07;37.20;;;18.20;99.90;;;17.33;100.00;102208.84;5003825;28;20030;-74
2023/09/07 04:14:44;;;;;;;79.35;36.40;;;18.20;99.90;;;17.36;100.00;102211.31;4997179;28;20057;-74
2023/09/07 04:17:10;;;;;;;96.55;35.70;;;18.20;99.90;;;17.28;100.00;102213.53;5003014;28;20031;-74
2023/09/07 04:19:36;;;;;;;87.53;37.13;;;18.20;99.90;;;17.30;100.00;102216.09;4995018;28;20026;-74
2023/09/07 04:22:02;;;;;;;77.82;36.75;;;18.20;99.90;;;17.34;100.00;102215.00;4998204;28;20518;-74
2023/09/07 04:24:28;;;;;;;82.32;37.85;;;18.20;99.90;;;17.39;100.00;102215.66;5000267;28;20096;-74
2023/09/07 04:26:59;;;;;;;81.55;36.50;;;18.30;99.90;;;17.41;100.00;102214.63;4986860;28;20025;-74
2023/09/07 04:29:25;;;;;;;79.68;36.03;;;18.20;99.90;;;17.36;100.00;102214.00;5001486;28;20034;-74
2023/09/07 04:31:51;;;;;;;73.90;36.45;;;18.20;99.90;;;17.37;100.00;102213.06;5004436;28;20035;-74
2023/09/07 04:34:16;;;;;;;90.75;39.42;;;18.30;99.90;;;17.33;100.00;102216.81;5000504;28;20047;-74
2023/09/07 04:36:42;;;;;;;97.20;38.78;;;18.20;99.90;;;17.35;100.00;102219.41;4996977;28;20459;-75
2023/09/07 04:39:08;;;;;;;100.55;39.78;;;18.30;99.90;;;17.40;100.00;102228.00;4995493;28;20034;-73
2023/09/07 04:41:33;;;;;;;70.85;33.38;;;18.20;99.90;;;17.34;100.00;102228.31;5002518;28;20030;-74
2023/09/07 04:43:59;;;;;;;55.75;32.08;;;18.20;99.90;;;17.34;100.00;102226.56;4983067;28;20514;-73
2023/09/07 04:46:25;;;;;;;63.20;33.22;;;18.20;99.90;;;17.21;100.00;102233.41;4995901;28;20031;-74
2023/09/07 04:48:51;;;;;;;77.80;34.30;;;18.20;99.90;;;17.33;100.00;102231.94;4999587;28;20112;-74
2023/09/07 04:51:16;;;;;;;64.35;34.50;;;18.30;99.90;;;17.43;100.00;102234.06;5002840;28;20069;-74
2023/09/07 04:53:42;;;;;;;65.78;34.17;;;18.30;99.90;;;17.51;100.00;102235.44;4985985;28;20041;-74
2023/09/07 04:56:08;;;;;;;92.35;37.00;;;18.30;99.90;;;17.52;100.00;102239.84;4993167;28;20430;-74
2023/09/07 04:58:35;;;;;;;77.32;36.10;;;18.30;99.90;;;17.49;100.00;102245.31;5002557;28;20022;-74
2023/09/07 05:01:06;;;;;;;100.40;38.05;;;18.30;99.90;;;17.49;100.00;102247.97;5001965;28;20025;-73
2023/09/07 05:03:33;;;;;;;80.22;37.38;;;18.40;99.90;;;17.46;100.00;102246.34;5000806;28;20026;-74
2023/09/07 05:06:00;;;;;;;75.93;36.35;;;18.40;99.90;;;17.53;100.00;102254.88;4996877;28;20518;-74
2023/09/07 05:08:26;;;;;;;71.53;35.20;;;18.40;99.90;;;17.47;100.00;102239.22;4982437;28;20054;-74
2023/09/07 05:11:00;;;;;;;102.18;42.05;;;18.40;99.90;;;17.48;100.00;102247.13;5003614;28;20411;-73
2023/09/07 05:13:26;;;;;;;74.20;38.38;;;18.40;99.90;;;17.55;100.00;102247.66;4983605;28;20038;-74
2023/09/07 05:15:54;;;;;;;91.97;39.80;;;18.40;99.90;;;17.52;100.00;102248.69;5000073;28;20109;-74
2023/09/07 05:18:20;;;;;;;95.20;43.20;;;18.40;99.90;;;17.57;100.00;102259.09;4999045;28;20114;-74
2023/09/07 05:20:48;;;;;;;97.90;42.85;;;18.50;99.90;;;17.64;100.00;102247.19;4990425;28;20109;-74
2023/09/07 05:23:18;;;;;;;98.05;45.50;;;18.50;99.90;;;17.67;100.00;102249.69;4987513;28;20029;-74
2023/09/07 05:25:53;;;;;;;92.50;45.15;;;18.50;99.90;;;17.60;100.00;102259.81;4984528;28;20033;-73
2023/09/07 05:28:21;;;;;;;80.90;41.90;;;18.50;99.90;;;17.63;100.00;102251.66;4998794;28;20070;-74
2023/09/07 05:30:47;;;;;;;88.25;43.15;;;18.50;99.90;;;17.65;100.00;102254.25;4993664;28;20029;-74
2023/09/07 05:33:15;;;;;;;81.75;42.42;;;18.50;99.90;;;17.71;100.00;102253.03;5002408;28;20038;-75
2023/09/07 05:35:42;;;;;;;92.53;46.35;;;18.60;99.90;;;17.82;100.00;102253.41;4978772;28;20065;-74
2023/09/07 05:38:08;;;;;;;97.13;45.72;;;18.60;99.90;;;17.88;100.00;102258.38;5005351;28;20030;-74
2023/09/07 05:40:40;;;;;;;86.68;45.05;;;18.70;99.90;;;17.89;100.00;102254.78;4999543;28;20034;-74
2023/09/07 05:43:06;;;;;;;94.93;44.33;;;18.70;99.90;;;17.78;100.00;102257.97;4999515;28;20089;-74
2023/09/07 05:45:38;;;;;;;97.85;44.45;;;18.70;99.90;;;17.92;100.00;102264.41;4995331;28;20034;-74
2023/09/07 05:48:04;;;;;;;94.53;47.17;;;18.70;99.90;;;17.85;100.00;102255.88;4996166;28;20136;-74
2023/09/07 05:50:33;;;;;;;96.75;47.67;;;18.80;99.90;;;18.02;100.00;102263.84;4985320;28;20128;-74
2023/09/07 05:52:59;;;;;;;127.32;51.53;;;18.80;99.90;;;17.99;100.00;102257.81;4999382;28;20518;-74
2023/09/07 05:55:24;;;;;;;97.65;49.15;;;18.80;99.90;;;18.07;100.00;102266.25;4998642;28;20042;-74
2023/09/07 05:57:50;;;;;;;129.52;50.13;;;18.90;99.90;;;18.07;100.00;102260.06;4985322;28;20415;-73
2023/09/07 06:00:16;;;;;;;95.13;46.10;;;18.80;99.90;;;18.00;100.00;102264.88;4969637;28;20034;-74
2023/09/07 06:02:45;;;;;;;123.47;50.90;;;18.80;99.90;;;18.02;100.00;102268.31;5002682;28;20030;-74
2023/09/07 06:05:11;;;;;;;128.75;52.72;;;18.80;99.90;;;17.98;100.00;102275.59;4986705;28;20058;-73
2023/09/07 06:07:37;;;;;;;85.05;45.22;;;18.80;99.90;;;17.89;100.00;102268.09;4977961;28;20420;-73
2023/09/07 06:10:05;;;;;;;89.30;46.70;;;18.70;99.90;;;17.86;100.00;102267.41;4999498;28;20526;-74
2023/09/07 06:12:32;;;;;;;93.15;48.92;;;18.80;99.90;;;17.91;100.00;102273.38;4999028;28;20038;-73
2023/09/07 06:14:57;;;;;;;79.05;46.25;;;18.80;99.90;;;18.17;100.00;102277.28;4994557;28;20030;-74
2023/09/07 06:17:23;;;;;;;77.70;43.88;;;18.90;99.90;;;18.23;100.00;102276.97;4985341;28;20031;-74
2023/09/07 06:19:51;;;;;;;70.55;43.65;;;19.00;99.90;;;18.35;100.00;102275.44;4973104;28;20026;-73
2023/09/07 06:22:17;;;;;;;85.20;45.03;;;19.10;99.90;;;18.50;100.00;102273.72;4978041;28;20041;-74
2023/09/07 06:24:43;;;;;;;75.45;44.20;;;19.20;99.90;;;18.55;100.00;102275.19;4985807;28;20026;-73
2023/09/07 06:27:08;;;;;;;74.00;44.80;;;19.30;99.90;;;18.66;100.00;102285.28;4984187;28;20038;-73
2023/09/07 06:29:34;;;;;;;68.10;38.95;;;19.40;99.90;;;18.70;100.00;102283.28;4977912;28;20500;-74
2023/09/07 06:32:00;;;;;;;74.93;41.88;;;19.40;99.90;;;18.54;100.00;102288.63;4982951;28;20030;-73
2023/09/07 06:34:26;;;;;;;62.55;39.33;;;19.20;99.90;;;18.18;100.00;102279.84;4984580;28;20049;-75
2023/09/07 06:36:51;;;;;;;63.47;37.30;;;19.20;99.90;;;18.36;100.00;102286.00;4979725;28;20061;-73
2023/09/07 06:39:17;;;;;;;54.30;35.80;;;19.20;99.90;;;18.40;100.00;102279.56;4972468;28;20408;-73
2023/09/07 06:41:46;;;;;;;53.67;39.08;;;19.30;99.90;;;18.57;100.00;102289.28;4978026;28;20030;-74
2023/09/07 06:44:12;;;;;;;44.72;31.65;;;19.40;99.90;;;18.74;100.00;102287.50;4981327;28;20041;-74
2023/09/07 06:46:37;;;;;;;56.03;35.50;;;19.40;99.90;;;18.65;100.00;102289.72;4975771;28;20030;-73
2023/09/07 06:49:03;;;;;;;44.45;29.92;;;19.50;99.90;;;18.90;100.00;102293.72;4966649;28;20400;-74
2023/09/07 06:51:31;;;;;;;38.58;27.40;;;19.70;99.90;;;19.28;100.00;102287.97;4979298;28;20519;-73
2023/09/07 06:53:57;;;;;;;33.85;25.52;;;20.00;99.90;;;19.93;100.00;102294.81;4978820;28;20053;-73
2023/09/07 06:56:23;;;;;;;34.65;23.92;;;20.40;99.90;;;20.48;100.00;102296.72;4981461;28;20054;-74
2023/09/07 06:58:49;;;;;;;29.90;23.00;;;20.80;99.90;;;21.22;99.09;102299.97;4971568;28;20034;-73
2023/09/07 07:01:15;;;;;;;26.30;19.70;;;21.60;99.90;;;24.09;85.07;102316.78;4980646;28;20034;-74
2023/09/07 07:03:41;;;;;;;23.75;18.40;;;23.10;99.90;;;26.48;73.37;102331.88;4980339;28;20034;-74
2023/09/07 07:06:07;;;;;;;21.20;18.23;;;24.80;99.90;;;28.04;66.67;102337.44;4980199;28;20045;-74
2023/09/07 07:08:33;;;;;;;19.73;15.18;;;26.10;99.90;;;28.40;64.15;102343.81;4980535;28;20035;-74
2023/09/07 07:10:58;;;;;;;17.75;14.15;;;27.30;99.90;;;29.69;60.31;102357.22;4984629;28;20045;-74
2023/09/07 07:13:25;;;;;;;18.15;13.02;;;28.40;99.90;;;30.43;58.49;102364.00;4963427;28;20050;-74
2023/09/07 07:15:51;;;;;;;21.63;12.75;;;29.50;99.90;;;31.74;55.37;102375.19;4961248;28;20211;-74
2023/09/07 07:18:17;;;;;;;17.05;11.88;;;30.70;99.90;;;33.02;53.24;102387.88;4961417;28;20067;-74
2023/09/07 07:20:44;;;;;;;16.25;11.25;;;32.00;99.90;;;34.11;50.79;102400.34;4966148;28;20027;-75
2023/09/07 07:23:12;;;;;;;14.93;12.25;;;32.90;99.90;;;34.39;49.13;102399.69;4967803;28;20034;-73
2023/09/07 07:25:38;;;;;;;12.57;11.02;;;33.80;99.90;;;35.25;47.21;102418.22;4962403;28;20105;-74
2023/09/07 07:28:05;;;;;;;13.50;10.00;;;34.50;99.90;;;35.98;46.13;102427.13;4945182;28;20051;-74
2023/09/07 07:30:36;;;;;;;11.23;9.07;;;35.40;99.90;;;36.78;44.78;102426.78;4961551;28;20066;-74
2023/09/07 07:33:04;;;;;;;19.02;9.77;;;36.00;97.30;;;36.81;43.96;102429.97;4966392;28;20098;-74
2023/09/07 07:35:36;;;;;;;13.95;9.13;;;36.20;95.40;;;36.29;44.10;102440.44;4968798;28;20041;-73
2023/09/07 07:38:03;;;;;;;17.10;10.02;;;36.20;94.00;;;35.88;43.25;102441.19;4958977;28;20034;-75
2023/09/07 07:40:30;;;;;;;13.10;7.95;;;36.00;94.20;;;35.60;43.91;102451.25;4978814;28;20029;-74
2023/09/07 07:42:56;;;;;;;25.38;10.02;;;36.00;94.70;;;35.82;43.56;102450.19;4979578;28;20031;-73
2023/09/07 07:45:22;;;;;;;15.85;7.57;;;35.90;95.30;;;35.43;43.91;102450.66;4978987;28;20050;-74
2023/09/07 07:47:52;;;;;;;17.45;8.98;;;36.00;94.10;;;35.64;43.46;102453.44;4986840;28;20781;-74
2023/09/07 07:50:18;;;;;;;10.50;7.35;;;36.60;94.20;;;36.59;42.22;102467.63;4981332;28;20034;-74
2023/09/07 07:52:45;;;;;;;15.05;8.20;;;36.70;92.90;;;36.10;42.53;102458.41;4979582;28;20487;-75
2023/09/07 07:55:12;;;;;;;23.73;10.30;;;36.90;92.70;;;36.54;41.73;102465.47;4986884;28;20500;-74
2023/09/07 07:57:37;;;;;;;8.73;7.22;;;37.00;92.50;;;36.43;41.68;102471.53;4985602;28;20046;-75
2023/09/07 08:00:05;;;;;;;8.45;7.05;;;36.90;92.00;;;35.73;42.11;102460.44;4986048;28;20140;-75
2023/09/07 08:02:31;;;;;;;8.27;6.30;;;37.00;93.70;;;36.40;41.97;102465.63;4971546;28;20034;-73
2023/09/07 08:04:58;;;;;;;9.10;6.78;;;37.00;92.30;;;36.16;41.98;102458.69;4982862;28;20554;-73
2023/09/07 08:07:24;;;;;;;9.10;6.63;;;37.00;91.90;;;36.16;41.66;102465.03;4966343;28;20031;-75
2023/09/07 08:09:51;;;;;;;15.05;7.45;;;36.80;93.40;;;35.90;42.48;102452.78;4983475;28;20106;-74
2023/09/07 08:12:17;;;;;;;9.73;6.35;;;37.00;91.80;;;36.14;41.54;102464.41;4984725;28;20022;-73
2023/09/07 08:14:43;;;;;;;8.32;5.88;;;37.00;91.10;;;35.67;42.17;102457.66;4981393;28;20125;-74
2023/09/07 08:17:08;;;;;;;10.32;6.22;;;36.90;90.90;;;35.54;42.29;102461.09;4982784;28;20121;-74
2023/09/07 08:19:34;;;;;;;21.17;8.15;;;36.60;92.20;;;35.41;42.80;102453.59;4976268;28;20053;-74
2023/09/07 08:22:03;;;;;;;9.23;5.90;;;36.40;92.00;;;35.19;42.13;102449.16;4985066;28;20491;-73
2023/09/07 08:24:29;;;;;;;9.52;5.30;;;36.40;93.20;;;35.79;42.42;102444.25;4984394;28;20034;-74
2023/09/07 08:26:57;;;;;;;7.72;5.68;;;36.70;92.20;;;35.98;41.34;102451.78;4981142;28;20034;-74
2023/09/07 08:29:26;;;;;;;7.97;5.30;;;36.80;92.60;;;35.93;41.58;102443.31;4982037;28;20027;-74
2023/09/07 08:31:55;;;;;;;10.45;5.47;;;36.80;92.60;;;35.89;41.59;102440.13;4970736;28;20127;-75
2023/09/07 08:34:22;;;;;;;14.80;5.53;;;36.30;91.70;;;35.03;42.31;102431.88;4983584;28;20038;-73
2023/09/07 08:36:49;;;;;;;11.40;5.47;;;35.60;92.50;;;33.88;44.76;102415.94;4980948;28;20056;-74
2023/09/07 08:39:16;;;;;;;6.90;4.93;;;35.40;92.80;;;34.15;44.24;102411.78;4981899;28;20023;-74
2023/09/07 08:41:44;;;;;;;12.48;5.78;;;35.40;93.90;;;34.70;44.17;102410.44;4984880;28;20052;-75
2023/09/07 08:44:20;;;;;;;8.90;4.85;;;35.30;92.80;;;34.51;43.23;102409.13;4970603;28;20125;-73
2023/09/07 08:46:47;;;;;;;12.50;5.55;;;35.30;93.70;;;34.43;44.73;102405.63;4983959;28;20042;-74
2023/09/07 08:49:12;;;;;;;13.50;5.38;;;35.20;93.80;;;34.41;43.90;102400.38;4981944;28;20039;-75
2023/09/07 08:51:38;;;;;;;11.75;4.90;;;34.60;93.20;;;33.09;46.39;102383.47;4978296;28;20029;-74
2023/09/07 08:54:06;;;;;;;10.25;5.15;;;33.90;94.00;;;32.40;46.84;102373.19;4984006;28;20390;-74
2023/09/07 08:56:33;;;;;;;13.32;5.43;;;33.40;94.80;;;32.26;47.50;102368.44;4986995;28;20117;-74
2023/09/07 08:58:58;;;;;;;8.85;4.80;;;33.10;95.60;;;32.14;48.07;102364.41;4973834;28;20031;-74
2023/09/07 09:01:24;;;;;;;9.27;5.00;;;32.80;96.10;;;31.96;48.87;102354.53;4968090;28;20026;-74
2023/09/07 09:03:51;;;;;;;7.90;4.90;;;32.40;96.40;;;31.59;49.41;102363.28;4981013;28;20678;-73
2023/09/07 09:06:19;;;;;;;9.15;4.63;;;32.20;97.10;;;31.68;49.99;102357.69;4982138;28;20077;-74
2023/09/07 09:08:52;;;;;;;9.50;5.15;;;31.90;96.30;;;30.89;49.91;102342.78;4967107;28;20569;-75
2023/09/07 09:11:22;;;;;;;11.40;4.50;;;31.30;96.80;;;30.28;51.62;102331.16;4982271;28;20403;-73
2023/09/07 09:13:50;;;;;;;10.75;5.30;;;31.00;97.80;;;30.23;51.76;102338.91;4983191;28;20034;-73
2023/09/07 09:16:19;;;;;;;8.45;4.72;;;30.50;97.30;;;29.41;53.10;102325.63;4983883;28;20042;-74
2023/09/07 09:18:59;;;;;;;7.85;4.35;;;30.40;99.10;;;29.64;53.72;102317.00;4986158;28;20074;-75
2023/09/07 09:21:27;;;;;;;7.78;4.47;;;30.30;99.30;;;29.69;53.44;102313.81;4984358;28;20050;-74
2023/09/07 09:23:57;;;;;;;6.53;4.40;;;30.10;99.10;;;29.17;54.32;102310.00;4983511;28;20060;-75
2023/09/07 09:26:23;;;;;;;8.55;4.65;;;29.90;99.70;;;28.89;55.48;102301.06;4980113;28;20034;-74
2023/09/07 09:28:52;;;;;;;14.05;5.43;;;29.80;99.90;;;29.16;55.50;102307.47;4998530;28;20038;-73
2023/09/07 09:31:24;;;;;;;8.50;4.90;;;29.70;99.90;;;28.92;56.23;102305.31;4985445;28;20034;-74
2023/09/07 09:33:53;;;;;;;11.57;4.95;;;29.60;99.90;;;29.11;56.18;102305.19;4982881;28;20026;-74
2023/09/07 09:36:23;;;;;;;7.70;4.57;;;29.70;99.90;;;29.28;55.95;102300.75;4979038;28;20023;-75
2023/09/07 09:38:53;;;;;;;9.57;4.88;;;29.60;99.90;;;28.96;55.38;102301.28;4979136;28;20101;-74
2023/09/07 09:41:23;;;;;;;11.77;4.28;;;29.60;99.90;;;28.93;55.37;102301.63;4984133;28;20045;-74
2023/09/07 09:43:51;;;;;;;10.98;4.30;;;29.60;99.90;;;28.99;55.29;102295.56;4981945;28;20121;-74
2023/09/07 09:46:17;;;;;;;4.65;3.90;;;29.60;99.90;;;28.96;54.81;102294.03;4982112;28;20496;-74
2023/09/07 09:48:44;;;;;;;10.05;4.00;;;29.50;99.90;;;28.92;55.50;102294.47;4977093;28;21492;-74
2023/09/07 09:51:14;;;;;;;11.55;4.30;;;29.30;99.90;;;28.43;55.39;102290.19;4962474;28;20121;-74
2023/09/07 09:53:49;;;;;;;19.08;4.38;;;29.40;99.90;;;28.83;55.38;102282.69;4984533;28;20069;-73
2023/09/07 09:56:20;;;;;;;9.15;4.00;;;29.40;99.90;;;28.86;55.40;102286.97;4981678;28;20495;-77
2023/09/07 09:58:46;;;;;;;8.27;3.92;;;29.40;99.90;;;28.82;55.12;102283.72;4980294;28;20121;-76
2023/09/07 10:01:14;;;;;;;9.75;3.92;;;29.40;99.90;;;28.77;54.89;102286.91;4963131;28;20186;-76
2023/09/07 10:03:47;;;;;;;7.53;3.70;;;29.30;99.60;;;28.55;54.62;102277.34;4980797;28;20038;-76